Time;durP1;ratioP1;P1;durP2;ratioP2;P2;SDS_P1;SDS_P2;PMS_P1;PMS_P2;Temp;Humidity;BMP_temperature;BMP_pressure;BME280_temperature;BME280_humidity;BME280_pressure;Samples;Min_cycle;Max_cycle;Signal;HPM_P1;HPM_P2
2022/09/13 00:00:32;;;;;;;8.57;5.17;;;18.60;99.90;;;;;;4954209;28;20193;-87
2022/09/13 00:02:58;;;;;;;11.70;4.83;;;18.60;99.90;;;;;;4954049;28;20569;-86
2022/09/13 00:05:24;;;;;;;8.67;5.70;;;18.60;99.90;;;;;;4953740;28;20347;-86
2022/09/13 00:07:50;;;;;;;8.63;5.40;;;18.60;99.90;;;;;;4969195;28;20259;-87
2022/09/13 00:10:16;;;;;;;11.03;6.20;;;18.60;99.90;;;;;;4953472;28;20361;-86
2022/09/13 00:12:42;;;;;;;10.73;6.10;;;18.70;99.90;;;;;;4970367;28;20686;-87
2022/09/13 00:15:08;;;;;;;8.13;6.30;;;18.70;99.90;;;;;;4952867;28;20256;-87
2022/09/13 00:17:34;;;;;;;9.33;6.80;;;18.70;99.90;;;;;;4953586;28;20217;-85
2022/09/13 00:20:00;;;;;;;9.03;6.03;;;18.60;99.90;;;;;;4952313;28;20816;-86
2022/09/13 00:22:27;;;;;;;16.13;5.80;;;18.70;99.90;;;;;;4952341;28;20319;-86
2022/09/13 00:24:52;;;;;;;11.80;6.63;;;18.60;99.90;;;;;;4953775;28;20258;-86
2022/09/13 00:27:18;;;;;;;10.40;6.40;;;18.60;99.90;;;;;;4969853;28;20658;-86
2022/09/13 00:29:45;;;;;;;11.27;7.20;;;18.60;99.90;;;;;;4969151;28;20591;-87
2022/09/13 00:32:10;;;;;;;10.90;6.43;;;18.60;99.90;;;;;;4968683;28;20308;-86
2022/09/13 00:34:36;;;;;;;12.37;6.30;;;18.60;99.90;;;;;;4953184;28;20303;-86
2022/09/13 00:37:02;;;;;;;10.30;6.07;;;18.60;99.90;;;;;;4953696;28;20709;-87
2022/09/13 00:39:28;;;;;;;8.87;5.57;;;18.70;99.90;;;;;;4952993;28;20563;-85
2022/09/13 00:41:54;;;;;;;11.70;6.00;;;18.60;99.90;;;;;;4953123;28;20239;-87
2022/09/13 00:44:54;;;;;;;11.00;6.40;;;18.70;99.90;;;;;;4968084;28;20255;-87
2022/09/13 00:47:49;;;;;;;8.67;5.57;;;18.60;99.90;;;;;;4969040;28;20216;-87
2022/09/13 00:50:24;;;;;;;14.40;5.70;;;18.70;99.90;;;;;;4965792;28;20224;-87
2022/09/13 00:53:04;;;;;;;16.97;6.87;;;18.70;99.90;;;;;;4969400;28;20716;-87
2022/09/13 00:55:33;;;;;;;10.33;5.37;;;18.60;99.90;;;;;;4968854;28;20228;-87
2022/09/13 00:58:04;;;;;;;8.70;5.57;;;18.70;99.90;;;;;;4969351;28;20736;-87
2022/09/13 01:00:30;;;;;;;10.40;6.57;;;18.70;99.90;;;;;;4969758;28;20208;-87
2022/09/13 01:03:00;;;;;;;16.07;7.50;;;18.70;99.90;;;;;;4953282;28;20259;-86
2022/09/13 01:05:31;;;;;;;7.90;6.27;;;18.70;99.90;;;;;;4967938;28;20313;-86
2022/09/13 01:07:59;;;;;;;12.57;7.27;;;18.70;99.90;;;;;;4969893;28;20220;-86
2022/09/13 01:10:30;;;;;;;9.03;6.30;;;18.70;99.90;;;;;;4969941;28;20216;-86
2022/09/13 01:12:59;;;;;;;10.47;6.27;;;18.70;99.90;;;;;;4953481;28;20199;-91
2022/09/13 01:15:25;;;;;;;11.57;6.70;;;18.70;99.90;;;;;;4985693;28;20199;-86
2022/09/13 01:17:53;;;;;;;10.73;6.37;;;18.80;99.90;;;;;;4968620;28;20311;-86
2022/09/13 01:20:24;;;;;;;11.20;6.53;;;18.80;99.90;;;;;;4968190;28;20307;-86
2022/09/13 01:23:25;;;;;;;7.13;5.43;;;18.80;99.90;;;;;;4968289;28;20279;-86
2022/09/13 01:26:18;;;;;;;9.07;5.93;;;18.80;99.90;;;;;;4958068;28;20211;-90
2022/09/13 01:28:49;;;;;;;7.50;5.60;;;18.80;99.90;;;;;;4968825;28;20304;-87
2022/09/13 01:31:32;;;;;;;8.03;5.07;;;18.90;99.90;;;;;;4967648;28;20311;-85
2022/09/13 01:34:17;;;;;;;6.67;4.87;;;18.90;99.90;;;;;;4986541;28;20246;-89
2022/09/13 01:37:02;;;;;;;7.40;4.70;;;18.90;99.90;;;;;;4972909;28;20247;-86
2022/09/13 01:39:55;;;;;;;8.77;4.27;;;18.90;99.90;;;;;;4972574;28;20291;-89
2022/09/13 01:42:33;;;;;;;6.70;4.23;;;18.90;99.90;;;;;;4972560;28;20703;-85
2022/09/13 01:45:27;;;;;;;6.33;3.40;;;19.00;99.90;;;;;;4971432;28;20239;-86
2022/09/13 01:47:52;;;;;;;3.60;1.23;;;18.90;99.90;;;;;;4971228;28;20219;-86
2022/09/13 01:50:21;;;;;;;0.40;0.40;;;18.70;99.90;;;;;;4970789;28;20233;-86
2022/09/13 01:52:50;;;;;;;4.37;0.50;;;18.50;99.90;;;;;;4986911;28;20755;-86
2022/09/13 01:55:22;;;;;;;0.30;0.30;;;18.50;99.90;;;;;;4970950;28;20224;-86
2022/09/13 01:57:53;;;;;;;0.90;0.40;;;18.40;99.90;;;;;;4972046;28;20661;-89
2022/09/13 02:00:19;;;;;;;0.37;0.27;;;18.30;99.90;;;;;;4971201;28;20737;-88
2022/09/13 02:03:03;;;;;;;2.10;0.67;;;18.10;99.90;;;;;;4955553;28;20217;-87
2022/09/13 02:05:38;;;;;;;0.30;0.30;;;18.10;99.90;;;;;;4971331;28;20735;-86
2022/09/13 02:08:32;;;;;;;0.40;0.40;;;18.00;99.90;;;;;;4972246;28;20235;-87
2022/09/13 02:11:07;;;;;;;0.20;0.20;;;18.00;99.90;;;;;;4970852;28;20220;-87
2022/09/13 02:13:37;;;;;;;0.40;0.40;;;17.90;99.90;;;;;;4971054;28;20271;-88
2022/09/13 02:16:15;;;;;;;0.67;0.40;;;17.90;99.90;;;;;;4972151;28;20201;-89
2022/09/13 02:18:46;;;;;;;1.57;0.63;;;18.00;99.90;;;;;;4973155;28;20180;-88
2022/09/13 02:21:21;;;;;;;0.40;0.40;;;18.00;99.90;;;;;;4971327;28;20278;-87
2022/09/13 02:23:50;;;;;;;1.07;0.80;;;18.00;99.90;;;;;;4970951;28;20235;-86
2022/09/13 02:26:19;;;;;;;0.37;0.37;;;18.00;99.90;;;;;;4971372;28;20748;-87
2022/09/13 02:28:50;;;;;;;1.70;0.77;;;18.00;99.90;;;;;;4970920;28;20792;-86
2022/09/13 02:31:22;;;;;;;1.07;0.80;;;18.00;99.90;;;;;;4972029;28;20685;-86
2022/09/13 02:33:56;;;;;;;1.17;0.87;;;18.20;99.90;;;;;;4971637;28;20196;-86
2022/09/13 02:36:30;;;;;;;1.67;0.63;;;18.10;99.90;;;;;;4972133;28;20212;-86
2022/09/13 02:39:14;;;;;;;0.97;0.60;;;18.10;99.90;;;;;;4970378;28;20217;-87
2022/09/13 02:41:46;;;;;;;0.63;0.50;;;18.10;99.90;;;;;;4969608;28;20278;-85
2022/09/13 02:44:21;;;;;;;0.53;0.53;;;18.10;99.90;;;;;;4986405;28;20688;-85
2022/09/13 02:46:59;;;;;;;3.17;0.67;;;18.10;99.90;;;;;;4969962;28;20266;-85
2022/09/13 02:49:42;;;;;;;0.60;0.60;;;18.10;99.90;;;;;;4969147;28;20746;-86
2022/09/13 02:52:46;;;;;;;0.80;0.60;;;18.20;99.90;;;;;;4969906;28;20196;-85
2022/09/13 02:55:16;;;;;;;2.23;1.23;;;18.20;99.90;;;;;;4970039;28;20263;-86
2022/09/13 02:57:58;;;;;;;0.40;0.40;;;18.10;99.90;;;;;;4970665;28;20193;-86
2022/09/13 03:00:24;;;;;;;0.70;0.70;;;18.10;99.90;;;;;;4969137;28;20228;-85
2022/09/13 03:02:52;;;;;;;2.00;0.67;;;18.10;99.90;;;;;;4969673;28;20232;-85
2022/09/13 03:05:18;;;;;;;2.50;0.60;;;18.10;99.90;;;;;;4953737;28;20225;-87
2022/09/13 03:07:44;;;;;;;1.00;0.73;;;18.20;99.90;;;;;;4953488;28;20216;-85
2022/09/13 03:10:12;;;;;;;0.90;0.70;;;18.20;99.90;;;;;;4932131;28;20192;-87
2022/09/13 03:12:57;;;;;;;1.53;0.50;;;18.20;99.90;;;;;;4986352;28;20185;-86
2022/09/13 03:15:41;;;;;;;2.60;0.57;;;18.20;99.90;;;;;;4969803;28;20291;-86
2022/09/13 03:18:29;;;;;;;0.60;0.60;;;18.20;99.90;;;;;;4969391;28;20614;-86
2022/09/13 03:21:07;;;;;;;0.50;0.50;;;18.20;99.90;;;;;;4985671;28;20220;-86
2022/09/13 03:23:52;;;;;;;0.50;0.50;;;18.20;99.90;;;;;;4970230;28;20236;-85
2022/09/13 03:26:52;;;;;;;2.27;0.80;;;18.20;99.90;;;;;;4985628;28;20711;-86
2022/09/13 03:29:24;;;;;;;0.93;0.57;;;18.20;99.90;;;;;;4968893;28;20232;-86
2022/09/13 03:32:25;;;;;;;0.67;0.67;;;18.20;99.90;;;;;;4985365;28;20270;-85
2022/09/13 03:34:58;;;;;;;2.37;0.90;;;18.20;99.90;;;;;;4968978;28;20286;-87
2022/09/13 03:37:39;;;;;;;1.10;1.00;;;18.20;99.90;;;;;;4969315;28;20253;-86
2022/09/13 03:40:07;;;;;;;0.83;0.83;;;18.20;99.90;;;;;;4969263;28;20535;-86
2022/09/13 03:42:49;;;;;;;0.73;0.73;;;18.20;99.90;;;;;;4969088;28;20216;-86
2022/09/13 03:45:18;;;;;;;3.83;1.53;;;18.20;99.90;;;;;;4969086;28;20240;-86
2022/09/13 03:47:47;;;;;;;0.80;0.80;;;18.10;99.90;;;;;;4969783;28;20216;-88
2022/09/13 03:50:17;;;;;;;0.70;0.70;;;18.10;99.90;;;;;;4984817;28;20307;-86
2022/09/13 03:52:45;;;;;;;2.90;1.00;;;18.20;99.90;;;;;;4969730;28;20315;-85
2022/09/13 03:55:11;;;;;;;0.70;0.67;;;18.20;99.90;;;;;;4968878;28;20294;-85
2022/09/13 03:57:37;;;;;;;1.77;0.77;;;18.30;99.90;;;;;;4969370;28;20196;-88
2022/09/13 04:00:03;;;;;;;10.67;1.33;;;18.30;99.90;;;;;;4952579;28;20279;-86
2022/09/13 04:02:29;;;;;;;0.67;0.60;;;18.30;99.90;;;;;;4968253;28;20232;-86
2022/09/13 04:04:55;;;;;;;1.03;0.80;;;18.30;99.90;;;;;;4952932;28;20235;-85
2022/09/13 04:07:23;;;;;;;0.60;0.60;;;18.30;99.90;;;;;;4951963;28;20247;-87
2022/09/13 04:09:49;;;;;;;3.03;0.60;;;18.30;99.90;;;;;;4968832;28;20193;-87
2022/09/13 04:12:16;;;;;;;0.70;0.70;;;18.30;99.90;;;;;;4952384;28;20259;-89
2022/09/13 04:14:43;;;;;;;2.73;0.73;;;18.30;99.90;;;;;;4951960;28;20708;-86
2022/09/13 04:17:10;;;;;;;3.13;0.90;;;18.30;99.90;;;;;;4968329;28;20710;-87
2022/09/13 04:19:35;;;;;;;1.87;0.63;;;18.40;99.90;;;;;;4984172;28;20215;-87
2022/09/13 04:22:02;;;;;;;1.47;0.80;;;18.40;99.90;;;;;;4952536;28;20188;-85
2022/09/13 04:24:29;;;;;;;0.80;0.80;;;18.40;99.90;;;;;;4968799;28;21165;-86
2022/09/13 04:26:55;;;;;;;0.60;0.57;;;18.40;99.90;;;;;;4952426;28;20223;-86
2022/09/13 04:29:23;;;;;;;3.23;1.50;;;18.40;99.90;;;;;;4983453;28;20905;-87
2022/09/13 04:31:49;;;;;;;0.60;0.60;;;18.30;99.90;;;;;;4952149;28;20271;-85
2022/09/13 04:34:19;;;;;;;4.70;0.90;;;18.30;99.90;;;;;;4951883;28;20271;-85
2022/09/13 04:36:46;;;;;;;2.83;0.83;;;18.30;99.90;;;;;;4952913;28;20855;-89
2022/09/13 04:39:15;;;;;;;3.47;0.63;;;18.40;99.90;;;;;;4951935;28;20265;-85
2022/09/13 04:41:47;;;;;;;1.50;0.67;;;18.30;99.90;;;;;;4952640;28;20326;-85
2022/09/13 04:44:14;;;;;;;6.43;0.83;;;18.30;99.90;;;;;;4969267;28;20704;-86
2022/09/13 04:46:40;;;;;;;1.43;0.90;;;18.20;99.90;;;;;;4967529;28;20212;-85
2022/09/13 04:49:06;;;;;;;1.80;0.90;;;18.20;99.90;;;;;;4951641;28;20195;-86
2022/09/13 04:51:32;;;;;;;6.70;1.63;;;18.20;99.90;;;;;;4968131;28;20189;-85
2022/09/13 04:53:59;;;;;;;2.20;0.70;;;18.10;99.90;;;;;;4951658;28;20311;-86
2022/09/13 04:56:25;;;;;;;1.30;0.60;;;18.00;99.90;;;;;;4967327;28;20216;-87
2022/09/13 04:58:51;;;;;;;5.93;0.70;;;18.00;99.90;;;;;;4967459;28;20243;-86
2022/09/13 05:01:18;;;;;;;3.27;0.90;;;18.00;99.90;;;;;;4951803;28;20617;-86
2022/09/13 05:03:44;;;;;;;0.60;0.60;;;18.00;99.90;;;;;;4968064;28;20779;-86
2022/09/13 05:06:12;;;;;;;2.50;0.63;;;18.00;99.90;;;;;;4950705;28;20263;-86
2022/09/13 05:08:38;;;;;;;2.67;0.90;;;18.00;99.90;;;;;;4967718;28;20243;-85
2022/09/13 05:11:05;;;;;;;2.63;0.93;;;17.90;99.90;;;;;;4951863;28;20570;-88
2022/09/13 05:13:32;;;;;;;1.10;0.80;;;18.00;99.90;;;;;;4981531;28;20283;-85
2022/09/13 05:16:04;;;;;;;0.40;0.40;;;17.90;99.90;;;;;;4965795;28;20185;-85
2022/09/13 05:18:31;;;;;;;1.40;0.80;;;17.90;99.90;;;;;;4967860;28;20180;-84
2022/09/13 05:20:59;;;;;;;0.40;0.40;;;17.90;99.90;;;;;;4951049;28;20570;-85
2022/09/13 05:23:26;;;;;;;3.53;0.60;;;17.80;99.90;;;;;;4950898;28;20371;-86
2022/09/13 05:25:57;;;;;;;0.30;0.30;;;17.80;99.90;;;;;;4966680;28;20204;-86
2022/09/13 05:28:25;;;;;;;4.57;0.63;;;17.70;99.90;;;;;;4967094;28;20269;-85
2022/09/13 05:30:58;;;;;;;0.50;0.40;;;17.70;99.90;;;;;;4950891;28;20239;-89
2022/09/13 05:33:25;;;;;;;1.03;0.80;;;17.70;99.90;;;;;;4967253;28;20191;-87
2022/09/13 05:35:51;;;;;;;4.03;1.40;;;17.70;99.90;;;;;;4967041;28;20690;-84
2022/09/13 05:38:17;;;;;;;0.60;0.60;;;17.60;99.90;;;;;;4966743;28;20216;-86
2022/09/13 05:40:43;;;;;;;0.77;0.57;;;17.50;99.90;;;;;;4967111;28;20213;-85
2022/09/13 05:43:09;;;;;;;1.67;0.50;;;17.50;99.90;;;;;;4950459;28;20689;-89
2022/09/13 05:45:34;;;;;;;2.50;0.70;;;17.60;99.90;;;;;;4950741;28;20199;-85
2022/09/13 05:48:00;;;;;;;8.20;0.57;;;17.60;99.90;;;;;;4934502;28;20240;-86
2022/09/13 05:50:26;;;;;;;1.13;0.60;;;17.60;99.90;;;;;;4950934;28;20217;-85
2022/09/13 05:52:53;;;;;;;2.83;1.03;;;17.50;99.90;;;;;;4933730;28;20219;-86
2022/09/13 05:55:20;;;;;;;4.00;0.50;;;17.60;99.90;;;;;;4967901;28;20223;-89
2022/09/13 05:57:49;;;;;;;1.03;0.60;;;17.80;99.90;;;;;;4967399;28;20656;-87
2022/09/13 06:00:15;;;;;;;0.60;0.60;;;18.20;99.90;;;;;;4950591;28;20213;-87
2022/09/13 06:02:42;;;;;;;0.50;0.40;;;18.10;99.90;;;;;;4951003;28;20237;-86
2022/09/13 06:05:11;;;;;;;1.10;0.57;;;18.10;99.90;;;;;;4951775;28;20374;-88
2022/09/13 06:07:41;;;;;;;0.40;0.40;;;18.10;99.90;;;;;;4966456;28;20228;-86
2022/09/13 06:10:08;;;;;;;12.27;0.83;;;18.00;99.90;;;;;;4979325;28;20189;-86
2022/09/13 06:12:34;;;;;;;0.37;0.37;;;17.90;99.90;;;;;;4951307;28;20689;-86
2022/09/13 06:15:00;;;;;;;0.73;0.60;;;18.00;99.90;;;;;;4966176;28;20220;-86
2022/09/13 06:17:25;;;;;;;0.50;0.50;;;17.90;99.90;;;;;;4950877;28;20594;-90
2022/09/13 06:19:55;;;;;;;4.43;0.90;;;17.80;99.90;;;;;;4949367;28;20220;-86
2022/09/13 06:22:21;;;;;;;4.73;0.83;;;17.90;99.90;;;;;;4965350;28;20291;-87
2022/09/13 06:24:47;;;;;;;0.63;0.53;;;18.00;99.90;;;;;;4954222;28;20663;-87
2022/09/13 06:27:13;;;;;;;0.40;0.40;;;18.10;99.90;;;;;;4952371;28;20209;-89
2022/09/13 06:29:39;;;;;;;0.77;0.73;;;18.10;99.90;;;;;;4954064;28;20713;-87
2022/09/13 06:32:05;;;;;;;0.50;0.50;;;18.10;99.90;;;;;;4953339;28;20248;-86
2022/09/13 06:34:31;;;;;;;0.30;0.30;;;18.20;99.90;;;;;;4969267;28;20208;-89
2022/09/13 06:36:56;;;;;;;2.17;0.80;;;18.50;99.90;;;;;;4969772;28;20180;-87
2022/09/13 06:39:22;;;;;;;1.13;0.60;;;18.80;99.90;;;;;;4952131;28;20959;-90
2022/09/13 06:41:48;;;;;;;3.93;0.80;;;19.50;99.90;;;;;;4950818;28;20267;-87
2022/09/13 06:44:14;;;;;;;0.67;0.60;;;20.40;99.90;;;;;;4953048;28;20661;-88
2022/09/13 06:46:40;;;;;;;1.30;0.67;;;21.20;99.90;;;;;;4953800;28;20247;-87
2022/09/13 06:49:07;;;;;;;0.90;0.50;;;22.00;99.90;;;;;;4953749;28;20189;-91
2022/09/13 06:51:34;;;;;;;1.80;0.70;;;22.50;99.90;;;;;;4954934;28;20180;-89
2022/09/13 06:54:02;;;;;;;0.60;0.60;;;22.90;99.90;;;;;;4953794;28;20212;-88
2022/09/13 06:56:34;;;;;;;1.37;0.67;;;23.70;99.90;;;;;;4945789;28;20320;-88
2022/09/13 06:59:06;;;;;;;0.50;0.50;;;24.30;99.90;;;;;;4969478;28;20221;-88
2022/09/13 07:01:34;;;;;;;0.85;0.50;;;23.40;99.90;;;;;;4969329;28;20212;-91
2022/09/13 07:04:03;;;;;;;0.55;0.55;;;22.60;99.90;;;;;;4969928;28;20204;-91
2022/09/13 07:06:32;;;;;;;0.77;0.47;;;21.90;99.90;;;;;;4970275;28;20231;-90
2022/09/13 07:08:59;;;;;;;6.10;0.82;;;21.20;99.90;;;;;;4985073;28;20240;-91
2022/09/13 07:11:29;;;;;;;1.77;0.68;;;20.80;99.90;;;;;;4953317;28;20216;-88
2022/09/13 07:13:58;;;;;;;1.75;0.82;;;20.80;99.90;;;;;;4985537;28;20716;-88
2022/09/13 07:16:30;;;;;;;1.45;0.80;;;21.30;99.90;;;;;;4953651;28;20713;-89
2022/09/13 07:19:04;;;;;;;0.70;0.70;;;21.70;99.90;;;;;;4969167;28;20188;-88
2022/09/13 07:21:31;;;;;;;0.60;0.60;;;21.30;99.90;;;;;;4969686;28;20183;-90
2022/09/13 07:23:58;;;;;;;4.50;0.60;;;20.70;99.90;;;;;;4968331;28;20311;-88
2022/09/13 07:26:26;;;;;;;1.37;0.90;;;21.00;99.90;;;;;;4968622;28;20240;-90
2022/09/13 07:28:54;;;;;;;1.52;0.55;;;21.80;99.90;;;;;;4969784;28;20205;-88
2022/09/13 07:31:22;;;;;;;0.57;0.40;;;22.20;99.90;;;;;;4968621;28;20213;-87
2022/09/13 07:34:00;;;;;;;3.22;0.40;;;22.40;99.90;;;;;;4969758;28;20617;-88
2022/09/13 07:36:27;;;;;;;1.10;0.50;;;22.90;99.90;;;;;;4968669;28;20228;-87
2022/09/13 07:38:53;;;;;;;6.40;0.80;;;23.80;99.90;;;;;;4967854;28;20208;-89
2022/09/13 07:41:22;;;;;;;0.82;0.80;;;23.60;99.90;;;;;;4952574;28;20232;-88
2022/09/13 07:43:48;;;;;;;2.67;0.50;;;22.40;99.90;;;;;;4968786;28;20258;-89
2022/09/13 07:46:20;;;;;;;2.30;0.60;;;21.20;99.90;;;;;;4952996;28;20212;-87
2022/09/13 07:48:46;;;;;;;2.92;0.60;;;20.50;99.90;;;;;;4969323;28;20185;-86
2022/09/13 07:51:15;;;;;;;1.77;0.60;;;20.40;99.90;;;;;;4969362;28;20236;-86
2022/09/13 07:53:42;;;;;;;2.75;0.60;;;21.20;99.90;;;;;;4967884;28;20241;-86
2022/09/13 07:56:15;;;;;;;2.78;0.70;;;22.20;99.90;;;;;;4984360;28;20243;-87
2022/09/13 07:58:43;;;;;;;0.65;0.45;;;24.10;99.90;;;;;;4967879;28;20303;-88
2022/09/13 08:01:27;;;;;;;0.55;0.55;;;25.10;99.90;;;;;;4951475;28;20189;-87
2022/09/13 08:04:02;;;;;;;0.60;0.40;;;25.20;99.90;;;;;;4969360;28;20250;-87
2022/09/13 08:06:30;;;;;;;2.25;0.88;;;24.80;99.90;;;;;;4968865;28;20310;-88
2022/09/13 08:08:56;;;;;;;1.13;0.55;;;24.60;99.90;;;;;;4967630;28;20759;-90
2022/09/13 08:11:44;;;;;;;1.00;0.40;;;26.20;99.90;;;;;;4967873;28;21319;-87
2022/09/13 08:14:12;;;;;;;0.35;0.35;;;25.40;99.90;;;;;;4967687;28;20291;-87
2022/09/13 08:16:38;;;;;;;2.17;0.50;;;25.30;99.90;;;;;;4967563;28;20693;-87
2022/09/13 08:19:05;;;;;;;0.50;0.40;;;25.80;99.90;;;;;;4951383;28;20199;-86
2022/09/13 08:21:36;;;;;;;2.55;0.93;;;26.30;99.90;;;;;;4952633;28;21111;-85
2022/09/13 08:24:03;;;;;;;6.25;0.70;;;26.40;99.90;;;;;;4967753;28;20229;-87
2022/09/13 08:26:31;;;;;;;1.95;0.50;;;26.80;99.90;;;;;;4928179;28;20682;-88
2022/09/13 08:28:59;;;;;;;3.80;0.77;;;25.10;99.90;;;;;;4968007;28;20813;-86
2022/09/13 08:31:25;;;;;;;2.38;0.50;;;25.00;99.90;;;;;;4968431;28;20681;-87
2022/09/13 08:33:52;;;;;;;1.95;0.75;;;25.10;99.90;;;;;;4967334;28;20192;-89
2022/09/13 08:36:18;;;;;;;0.50;0.50;;;25.60;99.90;;;;;;4968458;28;20195;-88
2022/09/13 08:38:49;;;;;;;5.20;0.90;;;27.00;99.90;;;;;;4951837;28;20355;-86
2022/09/13 08:41:38;;;;;;;0.45;0.45;;;27.50;99.90;;;;;;4967961;28;20224;-86
2022/09/13 08:44:47;;;;;;;0.65;0.40;;;26.30;99.90;;;;;;4946781;28;20228;-87
2022/09/13 08:47:27;;;;;;;0.77;0.47;;;26.00;99.90;;;;;;4936244;29;20276;-86
2022/09/13 08:50:19;;;;;;;3.55;0.73;;;23.30;99.90;;;;;;4968378;28;20677;-86
2022/09/13 08:53:23;;;;;;;1.80;0.70;;;23.00;99.90;;;;;;4967065;28;20208;-88
2022/09/13 08:55:57;;;;;;;1.67;0.60;;;22.50;99.90;;;;;;4967329;28;20336;-86
2022/09/13 08:58:31;;;;;;;2.30;0.70;;;22.90;99.90;;;;;;4969273;28;20211;-86
2022/09/13 09:01:07;;;;;;;2.13;0.63;;;22.70;99.90;;;;;;4967637;28;20644;-86
2022/09/13 09:03:51;;;;;;;2.67;0.70;;;22.70;99.90;;;;;;4968220;28;20211;-86
2022/09/13 09:06:18;;;;;;;2.47;0.70;;;22.50;99.90;;;;;;4967710;28;20760;-86
2022/09/13 09:09:11;;;;;;;2.25;1.05;;;22.90;99.90;;;;;;4983316;28;20271;-86
2022/09/13 09:11:53;;;;;;;0.50;0.50;;;22.70;99.90;;;;;;4966575;28;20216;-86
2022/09/13 09:14:30;;;;;;;2.38;0.60;;;22.60;99.90;;;;;;4951302;28;20220;-85
2022/09/13 09:17:03;;;;;;;1.73;0.70;;;22.30;99.90;;;;;;4965420;28;20243;-86
2022/09/13 09:19:35;;;;;;;2.22;0.50;;;22.70;99.90;;;;;;4966499;28;20733;-88
2022/09/13 09:22:10;;;;;;;4.57;0.80;;;23.50;99.90;;;;;;4983135;28;20740;-85
2022/09/13 09:24:39;;;;;;;2.25;1.02;;;23.20;99.90;;;;;;4966625;28;20740;-90
2022/09/13 09:27:14;;;;;;;1.38;0.50;;;23.30;99.90;;;;;;4983058;28;20840;-87
2022/09/13 09:29:43;;;;;;;2.35;0.90;;;23.70;99.90;;;;;;4966809;28;20234;-87
2022/09/13 09:32:15;;;;;;;3.42;0.70;;;23.90;99.90;;;;;;4951736;28;20240;-85
2022/09/13 09:34:47;;;;;;;1.17;0.60;;;23.70;99.90;;;;;;4983045;28;20188;-86
2022/09/13 09:37:24;;;;;;;0.40;0.40;;;24.40;99.90;;;;;;4968247;28;20681;-85
2022/09/13 09:40:00;;;;;;;0.70;0.70;;;23.80;99.90;;;;;;4951147;28;20689;-87
2022/09/13 09:42:31;;;;;;;2.05;1.08;;;22.00;99.90;;;;;;4966565;28;20211;-85
2022/09/13 09:45:25;;;;;;;1.33;0.50;;;21.70;99.90;;;;;;4967004;28;20742;-91
2022/09/13 09:47:54;;;;;;;4.03;0.70;;;21.50;99.90;;;;;;4966065;28;20652;-86
2022/09/13 09:50:19;;;;;;;1.65;0.60;;;21.30;99.90;;;;;;4982991;28;20262;-86
2022/09/13 09:53:04;;;;;;;1.88;1.23;;;21.80;99.90;;;;;;4967059;28;20733;-86
2022/09/13 09:55:50;;;;;;;1.45;0.63;;;22.30;99.90;;;;;;4986579;28;20216;-86
2022/09/13 09:58:17;;;;;;;0.68;0.50;;;22.70;99.90;;;;;;4972032;28;20220;-86
2022/09/13 10:00:56;;;;;;;1.45;0.93;;;22.10;99.90;;;;;;4954064;28;20576;-88
2022/09/13 10:03:28;;;;;;;0.80;0.70;;;23.30;99.90;;;;;;4971759;28;20322;-86
2022/09/13 10:06:19;;;;;;;0.60;0.60;;;23.30;99.90;;;;;;4970492;28;20212;-84
2022/09/13 10:09:00;;;;;;;2.65;0.88;;;22.80;99.90;;;;;;4986734;28;20220;-84
2022/09/13 10:11:49;;;;;;;1.17;0.80;;;22.40;99.90;;;;;;4971697;28;20268;-88
2022/09/13 10:14:45;;;;;;;2.95;0.68;;;22.40;99.90;;;;;;4972102;28;20662;-87
2022/09/13 10:17:24;;;;;;;1.88;0.93;;;22.60;99.90;;;;;;4970319;28;20197;-86
2022/09/13 10:19:57;;;;;;;3.80;0.73;;;22.50;99.90;;;;;;4986542;28;20184;-86
2022/09/13 10:22:23;;;;;;;1.00;0.68;;;23.30;99.90;;;;;;4970567;28;20629;-88
2022/09/13 10:24:49;;;;;;;3.70;0.70;;;23.60;99.90;;;;;;4954365;28;20220;-87
2022/09/13 10:27:38;;;;;;;1.98;0.85;;;22.30;99.90;;;;;;4953821;28;21292;-85
2022/09/13 10:30:05;;;;;;;2.28;0.50;;;21.50;99.90;;;;;;4986051;28;20244;-88
2022/09/13 10:32:32;;;;;;;0.57;0.57;;;20.80;99.90;;;;;;4953535;28;20204;-87
2022/09/13 10:35:09;;;;;;;1.02;0.88;;;20.70;99.90;;;;;;4954485;28;21237;-86
2022/09/13 10:37:36;;;;;;;1.35;0.82;;;21.20;99.90;;;;;;4971153;28;20645;-86
2022/09/13 10:40:15;;;;;;;1.70;0.82;;;21.60;99.90;;;;;;4969970;28;20715;-88
2022/09/13 10:42:51;;;;;;;5.72;1.02;;;21.90;99.90;;;;;;4969807;28;20216;-86
2022/09/13 10:45:26;;;;;;;2.28;0.70;;;21.60;99.90;;;;;;4970681;28;20208;-85
2022/09/13 10:47:54;;;;;;;2.15;0.82;;;21.90;99.90;;;;;;4985494;28;20211;-85
2022/09/13 10:50:29;;;;;;;2.05;0.70;;;21.90;99.90;;;;;;4969967;28;20231;-85
2022/09/13 10:52:57;;;;;;;6.97;1.17;;;22.10;99.90;;;;;;4984665;28;20196;-84
2022/09/13 10:55:23;;;;;;;1.73;0.75;;;22.80;99.90;;;;;;4954082;28;20185;-84
2022/09/13 10:57:54;;;;;;;7.82;0.90;;;22.10;99.90;;;;;;4985568;28;20255;-86
2022/09/13 11:00:29;;;;;;;6.45;0.70;;;21.90;99.90;;;;;;4970012;28;20631;-87
2022/09/13 11:03:01;;;;;;;1.30;0.52;;;21.90;99.90;;;;;;4968994;28;20220;-87
2022/09/13 11:06:05;;;;;;;1.38;0.47;;;22.00;99.90;;;;;;4968715;28;20227;-86
2022/09/13 11:08:55;;;;;;;0.95;0.68;;;22.40;99.90;;;;;;4931955;29;20292;-87
2022/09/13 11:11:30;;;;;;;1.83;0.65;;;22.00;99.90;;;;;;4932515;29;20586;-85
2022/09/13 11:14:17;;;;;;;4.72;1.05;;;21.90;99.90;;;;;;4942725;28;20205;-85
2022/09/13 11:16:57;;;;;;;3.47;0.88;;;22.30;99.90;;;;;;4968413;28;20630;-85
2022/09/13 11:19:46;;;;;;;2.05;0.80;;;22.40;99.90;;;;;;4984669;28;20688;-86
2022/09/13 11:22:30;;;;;;;2.10;0.90;;;22.40;99.90;;;;;;4954341;28;20303;-84
2022/09/13 11:24:57;;;;;;;3.60;0.68;;;22.00;99.90;;;;;;4965743;28;20221;-85
2022/09/13 11:27:50;;;;;;;5.28;0.85;;;22.10;99.90;;;;;;4949282;28;20221;-86
2022/09/13 11:30:20;;;;;;;1.58;0.90;;;23.00;99.90;;;;;;4965847;28;20222;-86
2022/09/13 11:33:07;;;;;;;1.67;0.55;;;23.10;99.90;;;;;;4949840;28;20217;-84
2022/09/13 11:36:06;;;;;;;4.82;1.65;;;22.60;99.90;;;;;;4949717;28;20241;-85
2022/09/13 11:38:57;;;;;;;1.02;0.57;;;21.70;99.90;;;;;;4937236;28;20581;-88
2022/09/13 11:41:35;;;;;;;1.08;0.70;;;22.00;99.90;;;;;;4966257;28;20256;-88
2022/09/13 11:44:20;;;;;;;2.15;1.02;;;21.60;99.90;;;;;;4949892;28;20308;-88
2022/09/13 11:46:50;;;;;;;4.10;0.90;;;21.00;99.90;;;;;;4950269;29;20194;-91
2022/09/13 11:49:35;;;;;;;0.63;0.47;;;21.30;99.90;;;;;;4968735;28;20255;-89
2022/09/13 11:52:31;;;;;;;2.92;0.68;;;21.20;99.90;;;;;;4985070;28;20212;-88
2022/09/13 11:55:15;;;;;;;3.15;0.90;;;20.80;99.90;;;;;;4969096;28;20220;-89
2022/09/13 11:57:47;;;;;;;3.75;0.50;;;20.60;99.90;;;;;;4969571;28;20255;-89
2022/09/13 12:00:21;;;;;;;2.17;0.70;;;20.60;99.90;;;;;;4969504;28;20627;-88
2022/09/13 12:03:14;;;;;;;1.43;0.60;;;20.80;99.90;;;;;;4984842;28;20592;-87
2022/09/13 12:05:56;;;;;;;2.53;0.50;;;20.60;99.90;;;;;;4968325;28;20220;-87
2022/09/13 12:08:35;;;;;;;2.80;0.80;;;20.60;99.90;;;;;;4984699;28;20225;-89
2022/09/13 12:11:26;;;;;;;5.10;0.70;;;20.80;99.90;;;;;;4969264;28;20188;-89
2022/09/13 12:13:59;;;;;;;1.90;0.50;;;20.60;99.90;;;;;;4969433;28;20185;-91
2022/09/13 12:16:30;;;;;;;0.40;0.40;;;20.50;99.90;;;;;;4968902;28;20251;-88
2022/09/13 12:19:01;;;;;;;7.63;1.50;;;20.70;99.90;;;;;;4968001;28;20307;-88
2022/09/13 12:21:36;;;;;;;2.30;0.60;;;20.30;99.90;;;;;;4967845;28;20212;-89
2022/09/13 12:24:01;;;;;;;6.17;0.90;;;20.60;99.90;;;;;;4966863;28;20231;-88
2022/09/13 12:26:44;;;;;;;1.27;0.93;;;20.90;99.90;;;;;;4969227;28;20220;-88
2022/09/13 12:29:29;;;;;;;2.80;0.70;;;20.90;99.90;;;;;;4968145;28;20189;-89
2022/09/13 12:31:59;;;;;;;4.63;0.67;;;20.80;99.90;;;;;;4968222;28;20191;-87
2022/09/13 12:34:53;;;;;;;0.53;0.40;;;20.40;99.90;;;;;;4969121;28;20177;-89
2022/09/13 12:37:57;;;;;;;1.37;0.30;;;20.60;99.90;;;;;;4968364;28;20220;-89
2022/09/13 12:40:22;;;;;;;2.93;0.80;;;20.70;99.90;;;;;;4968801;28;20223;-86
2022/09/13 12:43:12;;;;;;;0.50;0.50;;;20.70;99.90;;;;;;4968538;28;20705;-88
2022/09/13 12:45:44;;;;;;;0.43;0.43;;;20.70;99.90;;;;;;4984326;28;20323;-87
2022/09/13 12:48:52;;;;;;;1.37;0.40;;;20.50;99.90;;;;;;4968411;28;20212;-87
2022/09/13 12:51:30;;;;;;;2.47;0.60;;;20.50;99.90;;;;;;4950380;28;20768;-89
2022/09/13 12:54:08;;;;;;;4.03;0.60;;;20.40;99.90;;;;;;4983975;28;20228;-90
2022/09/13 12:56:51;;;;;;;3.30;0.80;;;20.40;99.90;;;;;;4968548;28;20214;-88
2022/09/13 12:59:34;;;;;;;0.57;0.57;;;20.60;99.90;;;;;;4968356;28;20621;-87
2022/09/13 13:02:03;;;;;;;1.70;0.50;;;20.80;99.90;;;;;;4984011;28;20679;-89
2022/09/13 13:04:34;;;;;;;4.60;0.90;;;21.00;99.90;;;;;;4984323;28;20200;-88
2022/09/13 13:07:07;;;;;;;0.23;0.23;;;21.20;99.90;;;;;;4950899;28;20307;-88
2022/09/13 13:09:51;;;;;;;3.77;0.70;;;20.40;99.90;;;;;;4967042;28;20216;-89
2022/09/13 13:12:31;;;;;;;1.40;0.33;;;20.10;99.90;;;;;;4968702;28;20575;-87
2022/09/13 13:14:59;;;;;;;2.23;0.87;;;19.90;99.90;;;;;;4967382;28;20209;-87
2022/09/13 13:17:50;;;;;;;1.33;0.53;;;19.90;99.90;;;;;;4983324;28;20219;-88